sensor_id;sensor_type;location;lat;lon;timestamp;temperature;humidity
1594;DHT22;790;47.000;16.084;2022-08-19T00:06:18;19.70;99.90
1594;DHT22;790;47.000;16.084;2022-08-19T00:12:27;19.60;99.90
1594;DHT22;790;47.000;16.084;2022-08-19T00:18:34;19.40;99.90
1594;DHT22;790;47.000;16.084;2022-08-19T00:24:44;19.40;99.90
1594;DHT22;790;47.000;16.084;2022-08-19T00:30:52;19.50;99.90
1594;DHT22;790;47.000;16.084;2022-08-19T00:37:00;19.50;99.90
1594;DHT22;790;47.000;16.084;2022-08-19T00:43:10;19.50;99.90
1594;DHT22;790;47.000;16.084;2022-08-19T00:49:23;19.40;99.90
1594;DHT22;790;47.000;16.084;2022-08-19T00:55:33;19.10;99.90
1594;DHT22;790;47.000;16.084;2022-08-19T01:06:07;19.20;99.90
1594;DHT22;790;47.000;16.084;2022-08-19T01:12:29;19.20;99.90
1594;DHT22;790;47.000;16.084;2022-08-19T01:18:50;19.10;99.90
1594;DHT22;790;47.000;16.084;2022-08-19T01:25:13;19.20;99.90
1594;DHT22;790;47.000;16.084;2022-08-19T01:31:35;19.10;99.90
1594;DHT22;790;47.000;16.084;2022-08-19T01:38:01;18.90;99.90
1594;DHT22;790;47.000;16.084;2022-08-19T01:44:23;18.70;99.90
1594;DHT22;790;47.000;16.084;2022-08-19T01:50:45;18.90;99.90
1594;DHT22;790;47.000;16.084;2022-08-19T01:57:10;18.90;99.90
1594;DHT22;790;47.000;16.084;2022-08-19T02:07:58;18.70;99.90
1594;DHT22;790;47.000;16.084;2022-08-19T02:14:07;18.70;99.90
1594;DHT22;790;47.000;16.084;2022-08-19T02:20:16;18.70;99.90
1594;DHT22;790;47.000;16.084;2022-08-19T02:26:25;19.00;99.90
1594;DHT22;790;47.000;16.084;2022-08-19T02:32:33;19.10;99.90
1594;DHT22;790;47.000;16.084;2022-08-19T02:38:41;18.90;99.90
1594;DHT22;790;47.000;16.084;2022-08-19T02:44:51;18.80;99.90
1594;DHT22;790;47.000;16.084;2022-08-19T02:50:58;18.60;99.90
1594;DHT22;790;47.000;16.084;2022-08-19T02:57:06;18.60;99.90
1594;DHT22;790;47.000;16.084;2022-08-19T03:07:30;18.90;99.90
1594;DHT22;790;47.000;16.084;2022-08-19T03:13:52;18.80;99.90
1594;DHT22;790;47.000;16.084;2022-08-19T03:20:14;18.80;99.90
1594;DHT22;790;47.000;16.084;2022-08-19T03:26:40;18.90;99.90
1594;DHT22;790;47.000;16.084;2022-08-19T03:33:02;18.90;99.90
1594;DHT22;790;47.000;16.084;2022-08-19T03:39:23;18.70;99.90
1594;DHT22;790;47.000;16.084;2022-08-19T03:45:46;18.80;99.90
1594;DHT22;790;47.000;16.084;2022-08-19T03:52:09;18.70;99.90
1594;DHT22;790;47.000;16.084;2022-08-19T03:58:30;18.60;99.90
1594;DHT22;790;47.000;16.084;2022-08-19T04:09:18;18.70;99.90
1594;DHT22;790;47.000;16.084;2022-08-19T04:15:26;18.80;99.90
1594;DHT22;790;47.000;16.084;2022-08-19T04:21:35;18.90;99.90
1594;DHT22;790;47.000;16.084;2022-08-19T04:27:44;19.00;99.90
1594;DHT22;790;47.000;16.084;2022-08-19T04:33:52;19.20;99.90
1594;DHT22;790;47.000;16.084;2022-08-19T04:40:00;19.40;99.90
1594;DHT22;790;47.000;16.084;2022-08-19T04:46:27;19.50;99.90
1594;DHT22;790;47.000;16.084;2022-08-19T04:52:37;19.70;99.90
1594;DHT22;790;47.000;16.084;2022-08-19T04:58:49;19.80;99.90
1594;DHT22;790;47.000;16.084;2022-08-19T05:09:24;20.10;99.90
1594;DHT22;790;47.000;16.084;2022-08-19T05:15:53;20.10;99.90
1594;DHT22;790;47.000;16.084;2022-08-19T05:22:15;20.30;99.90
1594;DHT22;790;47.000;16.084;2022-08-19T05:28:56;20.40;99.90
1594;DHT22;790;47.000;16.084;2022-08-19T05:35:17;20.50;99.90
1594;DHT22;790;47.000;16.084;2022-08-19T05:41:41;20.70;99.90
1594;DHT22;790;47.000;16.084;2022-08-19T05:48:04;21.00;99.90
1594;DHT22;790;47.000;16.084;2022-08-19T05:54:26;21.10;99.90
1594;DHT22;790;47.000;16.084;2022-08-19T06:00:47;21.20;99.90
1594;DHT22;790;47.000;16.084;2022-08-19T06:11:36;21.50;99.90
1594;DHT22;790;47.000;16.084;2022-08-19T06:17:44;21.50;99.90
1594;DHT22;790;47.000;16.084;2022-08-19T06:23:52;21.40;99.90
1594;DHT22;790;47.000;16.084;2022-08-19T06:30:03;21.60;99.90
1594;DHT22;790;47.000;16.084;2022-08-19T06:36:17;21.80;99.90
1594;DHT22;790;47.000;16.084;2022-08-19T06:42:25;21.90;99.90
1594;DHT22;790;47.000;16.084;2022-08-19T06:48:35;22.00;99.90
1594;DHT22;790;47.000;16.084;2022-08-19T06:54:43;22.00;99.90
1594;DHT22;790;47.000;16.084;2022-08-19T07:00:51;22.20;99.90
1594;DHT22;790;47.000;16.084;2022-08-19T07:11:17;22.60;99.90
1594;DHT22;790;47.000;16.084;2022-08-19T07:17:39;22.70;99.90
1594;DHT22;790;47.000;16.084;2022-08-19T07:24:01;22.60;99.90
1594;DHT22;790;47.000;16.084;2022-08-19T07:30:24;22.90;99.90
1594;DHT22;790;47.000;16.084;2022-08-19T07:36:45;23.00;99.90
1594;DHT22;790;47.000;16.084;2022-08-19T07:43:07;23.20;99.90
1594;DHT22;790;47.000;16.084;2022-08-19T07:49:30;23.10;99.90
1594;DHT22;790;47.000;16.084;2022-08-19T07:55:52;23.30;99.90
1594;DHT22;790;47.000;16.084;2022-08-19T08:02:13;23.30;99.90
1594;DHT22;790;47.000;16.084;2022-08-19T08:12:59;23.40;99.90
1594;DHT22;790;47.000;16.084;2022-08-19T08:19:07;23.70;99.90
1594;DHT22;790;47.000;16.084;2022-08-19T08:25:18;23.90;99.90
1594;DHT22;790;47.000;16.084;2022-08-19T08:31:28;23.90;99.90
1594;DHT22;790;47.000;16.084;2022-08-19T08:37:35;23.90;99.90
1594;DHT22;790;47.000;16.084;2022-08-19T08:43:45;23.80;99.90
1594;DHT22;790;47.000;16.084;2022-08-19T08:49:56;23.90;99.90
1594;DHT22;790;47.000;16.084;2022-08-19T08:56:07;23.80;99.90
1594;DHT22;790;47.000;16.084;2022-08-19T09:02:19;23.70;99.90
1594;DHT22;790;47.000;16.084;2022-08-19T09:19:22;24.10;99.90
1594;DHT22;790;47.000;16.084;2022-08-19T09:25:43;24.20;99.90
1594;DHT22;790;47.000;16.084;2022-08-19T09:32:06;24.10;99.90
1594;DHT22;790;47.000;16.084;2022-08-19T09:38:27;24.10;99.90
1594;DHT22;790;47.000;16.084;2022-08-19T09:44:48;24.50;99.90
1594;DHT22;790;47.000;16.084;2022-08-19T09:51:12;24.70;99.90
1594;DHT22;790;47.000;16.084;2022-08-19T09:57:35;24.90;99.90
1594;DHT22;790;47.000;16.084;2022-08-19T10:03:59;24.90;99.90
1594;DHT22;790;47.000;16.084;2022-08-19T10:14:48;25.40;99.90
1594;DHT22;790;47.000;16.084;2022-08-19T10:21:05;25.40;99.90
1594;DHT22;790;47.000;16.084;2022-08-19T10:27:15;25.20;99.90
1594;DHT22;790;47.000;16.084;2022-08-19T10:33:24;25.10;99.90
1594;DHT22;790;47.000;16.084;2022-08-19T10:39:33;25.00;99.90
1594;DHT22;790;47.000;16.084;2022-08-19T10:45:42;25.00;99.90
1594;DHT22;790;47.000;16.084;2022-08-19T10:51:52;25.10;99.90
1594;DHT22;790;47.000;16.084;2022-08-19T10:58:19;25.30;99.90
1594;DHT22;790;47.000;16.084;2022-08-19T11:04:29;25.30;99.90
1594;DHT22;790;47.000;16.084;2022-08-19T11:15:04;25.10;99.90
1594;DHT22;790;47.000;16.084;2022-08-19T11:21:26;24.90;99.90
1594;DHT22;790;47.000;16.084;2022-08-19T11:27:48;24.80;99.90
1594;DHT22;790;47.000;16.084;2022-08-19T11:34:17;24.70;99.90
1594;DHT22;790;47.000;16.084;2022-08-19T11:40:39;24.60;99.90
1594;DHT22;790;47.000;16.084;2022-08-19T11:47:01;24.50;99.90
1594;DHT22;790;47.000;16.084;2022-08-19T11:53:23;24.40;99.90
1594;DHT22;790;47.000;16.084;2022-08-19T11:59:49;24.20;99.90
1594;DHT22;790;47.000;16.084;2022-08-19T12:06:12;24.00;99.90
1594;DHT22;790;47.000;16.084;2022-08-19T12:16:59;24.10;99.90
1594;DHT22;790;47.000;16.084;2022-08-19T12:23:09;24.50;99.90
1594;DHT22;790;47.000;16.084;2022-08-19T12:29:17;25.20;99.90
1594;DHT22;790;47.000;16.084;2022-08-19T12:35:26;26.00;99.90
1594;DHT22;790;47.000;16.084;2022-08-19T12:41:35;26.50;99.90
1594;DHT22;790;47.000;16.084;2022-08-19T12:47:42;26.90;99.90
1594;DHT22;790;47.000;16.084;2022-08-19T12:53:54;27.00;99.90
1594;DHT22;790;47.000;16.084;2022-08-19T13:00:05;27.20;99.90
1594;DHT22;790;47.000;16.084;2022-08-19T13:06:15;27.40;99.90
1594;DHT22;790;47.000;16.084;2022-08-19T13:16:40;27.40;99.90
1594;DHT22;790;47.000;16.084;2022-08-19T13:22:48;27.70;99.90
1594;DHT22;790;47.000;16.084;2022-08-19T13:28:57;28.00;99.90
1594;DHT22;790;47.000;16.084;2022-08-19T13:35:23;28.00;99.90
1594;DHT22;790;47.000;16.084;2022-08-19T13:41:31;28.10;99.90
1594;DHT22;790;47.000;16.084;2022-08-19T13:47:41;28.20;99.90
1594;DHT22;790;47.000;16.084;2022-08-19T13:53:52;28.40;99.90
1594;DHT22;790;47.000;16.084;2022-08-19T14:00:02;28.60;99.90
1594;DHT22;790;47.000;16.084;2022-08-19T14:06:11;28.70;99.90
1594;DHT22;790;47.000;16.084;2022-08-19T14:16:25;28.10;99.90
1594;DHT22;790;47.000;16.084;2022-08-19T14:22:48;28.00;99.90
1594;DHT22;790;47.000;16.084;2022-08-19T14:29:09;28.40;99.90
1594;DHT22;790;47.000;16.084;2022-08-19T14:35:33;28.40;99.90
1594;DHT22;790;47.000;16.084;2022-08-19T14:41:55;28.50;99.90
1594;DHT22;790;47.000;16.084;2022-08-19T14:48:18;28.50;99.90
1594;DHT22;790;47.000;16.084;2022-08-19T14:54:42;28.40;99.90
1594;DHT22;790;47.000;16.084;2022-08-19T15:01:04;28.50;99.90
1594;DHT22;790;47.000;16.084;2022-08-19T15:07:25;28.70;99.90
1594;DHT22;790;47.000;16.084;2022-08-19T15:18:01;28.60;99.90
1594;DHT22;790;47.000;16.084;2022-08-19T15:24:10;28.60;99.90
1594;DHT22;790;47.000;16.084;2022-08-19T15:30:21;28.60;99.90
1594;DHT22;790;47.000;16.084;2022-08-19T15:36:30;28.70;99.90
1594;DHT22;790;47.000;16.084;2022-08-19T15:42:38;28.60;99.90
1594;DHT22;790;47.000;16.084;2022-08-19T15:48:49;28.20;99.90
1594;DHT22;790;47.000;16.084;2022-08-19T15:55:21;27.80;99.90
1594;DHT22;790;47.000;16.084;2022-08-19T16:01:29;27.60;99.90
1594;DHT22;790;47.000;16.084;2022-08-19T16:07:55;27.40;99.90
1594;DHT22;790;47.000;16.084;2022-08-19T16:18:28;26.90;99.90
1594;DHT22;790;47.000;16.084;2022-08-19T16:24:50;26.50;99.90
1594;DHT22;790;47.000;16.084;2022-08-19T16:31:13;26.30;99.90
1594;DHT22;790;47.000;16.084;2022-08-19T16:37:36;26.20;99.90
1594;DHT22;790;47.000;16.084;2022-08-19T16:43:57;26.00;99.90
1594;DHT22;790;47.000;16.084;2022-08-19T16:50:18;25.80;99.90
1594;DHT22;790;47.000;16.084;2022-08-19T16:56:43;25.80;99.90
1594;DHT22;790;47.000;16.084;2022-08-19T17:03:07;25.70;99.90
1594;DHT22;790;47.000;16.084;2022-08-19T17:09:30;25.60;99.90
1594;DHT22;790;47.000;16.084;2022-08-19T17:20:18;25.20;99.90
1594;DHT22;790;47.000;16.084;2022-08-19T17:26:26;25.00;99.90
1594;DHT22;790;47.000;16.084;2022-08-19T17:32:33;24.90;99.90
1594;DHT22;790;47.000;16.084;2022-08-19T17:38:42;25.00;99.90
1594;DHT22;790;47.000;16.084;2022-08-19T17:44:50;25.20;99.90
1594;DHT22;790;47.000;16.084;2022-08-19T17:50:58;25.20;99.90
1594;DHT22;790;47.000;16.084;2022-08-19T17:57:09;25.00;99.90
1594;DHT22;790;47.000;16.084;2022-08-19T18:03:16;24.80;99.90
1594;DHT22;790;47.000;16.084;2022-08-19T18:09:26;24.30;99.90
1594;DHT22;790;47.000;16.084;2022-08-19T18:19:50;24.10;99.90
1594;DHT22;790;47.000;16.084;2022-08-19T18:26:12;23.90;99.90
1594;DHT22;790;47.000;16.084;2022-08-19T18:32:36;23.70;99.90
1594;DHT22;790;47.000;16.084;2022-08-19T18:38:58;23.60;99.90
1594;DHT22;790;47.000;16.084;2022-08-19T18:45:38;23.40;99.90
1594;DHT22;790;47.000;16.084;2022-08-19T18:52:18;23.30;99.90
1594;DHT22;790;47.000;16.084;2022-08-19T18:58:42;23.10;99.90
1594;DHT22;790;47.000;16.084;2022-08-19T19:05:05;23.00;99.90
1594;DHT22;790;47.000;16.084;2022-08-19T19:11:28;22.80;99.90
1594;DHT22;790;47.000;16.084;2022-08-19T19:22:27;22.50;99.90
1594;DHT22;790;47.000;16.084;2022-08-19T19:28:37;22.70;99.90
1594;DHT22;790;47.000;16.084;2022-08-19T19:34:49;22.70;99.90
1594;DHT22;790;47.000;16.084;2022-08-19T19:40:58;22.70;99.90
1594;DHT22;790;47.000;16.084;2022-08-19T19:47:08;22.50;99.90
1594;DHT22;790;47.000;16.084;2022-08-19T19:53:16;22.00;99.90
1594;DHT22;790;47.000;16.084;2022-08-19T19:59:25;21.90;99.90
1594;DHT22;790;47.000;16.084;2022-08-19T20:05:33;22.10;99.90
1594;DHT22;790;47.000;16.084;2022-08-19T20:11:43;22.40;99.90
1594;DHT22;790;47.000;16.084;2022-08-19T20:22:18;22.40;99.90
1594;DHT22;790;47.000;16.084;2022-08-19T20:28:39;22.50;99.90
1594;DHT22;790;47.000;16.084;2022-08-19T20:35:00;22.30;99.90
1594;DHT22;790;47.000;16.084;2022-08-19T20:41:24;22.30;99.90
1594;DHT22;790;47.000;16.084;2022-08-19T20:47:45;22.10;99.90
1594;DHT22;790;47.000;16.084;2022-08-19T20:54:07;22.00;99.90
1594;DHT22;790;47.000;16.084;2022-08-19T21:00:31;22.10;99.90
1594;DHT22;790;47.000;16.084;2022-08-19T21:06:53;21.90;99.90
1594;DHT22;790;47.000;16.084;2022-08-19T21:13:15;21.90;99.90
1594;DHT22;790;47.000;16.084;2022-08-19T21:24:02;22.00;99.90
1594;DHT22;790;47.000;16.084;2022-08-19T21:30:11;22.00;99.90
1594;DHT22;790;47.000;16.084;2022-08-19T21:36:19;22.10;99.90
1594;DHT22;790;47.000;16.084;2022-08-19T21:42:28;22.30;99.90
1594;DHT22;790;47.000;16.084;2022-08-19T21:48:37;22.30;99.90
1594;DHT22;790;47.000;16.084;2022-08-19T21:54:44;22.30;99.90
1594;DHT22;790;47.000;16.084;2022-08-19T22:00:53;22.20;99.90
1594;DHT22;790;47.000;16.084;2022-08-19T22:07:01;21.90;99.90
1594;DHT22;790;47.000;16.084;2022-08-19T22:13:08;22.00;99.90
1594;DHT22;790;47.000;16.084;2022-08-19T22:23:32;21.90;99.90
1594;DHT22;790;47.000;16.084;2022-08-19T22:29:53;22.00;99.90
1594;DHT22;790;47.000;16.084;2022-08-19T22:36:14;21.90;99.90
1594;DHT22;790;47.000;16.084;2022-08-19T22:42:56;21.80;99.90
1594;DHT22;790;47.000;16.084;2022-08-19T22:49:38;21.60;99.90
1594;DHT22;790;47.000;16.084;2022-08-19T22:55:59;21.70;99.90
1594;DHT22;790;47.000;16.084;2022-08-19T23:02:25;21.50;99.90
1594;DHT22;790;47.000;16.084;2022-08-19T23:08:46;21.40;99.90
1594;DHT22;790;47.000;16.084;2022-08-19T23:15:11;21.30;99.90
1594;DHT22;790;47.000;16.084;2022-08-19T23:26:09;21.50;99.90
1594;DHT22;790;47.000;16.084;2022-08-19T23:32:18;21.50;99.90
1594;DHT22;790;47.000;16.084;2022-08-19T23:38:28;21.50;99.90
1594;DHT22;790;47.000;16.084;2022-08-19T23:44:39;21.40;99.90
1594;DHT22;790;47.000;16.084;2022-08-19T23:50:47;21.20;99.90
1594;DHT22;790;47.000;16.084;2022-08-19T23:56:55;21.30;99.90
